createdAt,value
2018-12-29T00:02:40.617Z,10.80
2018-12-29T00:05:47.710Z,13.13
2018-12-29T00:08:54.816Z,12.73
2018-12-29T00:12:01.848Z,11.40
2018-12-29T00:15:09.829Z,11.40
2018-12-29T00:18:16.961Z,11.55
2018-12-29T00:21:24.050Z,12.00
2018-12-29T00:24:31.285Z,10.88
2018-12-29T00:27:38.854Z,10.30
2018-12-29T00:30:45.922Z,10.55
2018-12-29T00:33:53.147Z,11.05
2018-12-29T00:37:00.220Z,10.93
2018-12-29T00:40:07.871Z,10.80
2018-12-29T00:43:15.013Z,10.98
2018-12-29T00:46:22.091Z,10.58
2018-12-29T00:49:29.252Z,9.93
2018-12-29T00:52:36.431Z,10.90
2018-12-29T00:55:43.524Z,11.20
2018-12-29T00:58:50.646Z,11.88
2018-12-29T01:01:57.828Z,11.33
2018-12-29T01:05:05.050Z,11.95
2018-12-29T01:08:12.641Z,10.00
2018-12-29T01:11:19.721Z,11.00
2018-12-29T01:14:26.937Z,10.00
2018-12-29T01:17:34.041Z,9.88
2018-12-29T01:20:41.286Z,10.60
2018-12-29T01:23:48.577Z,9.93
2018-12-29T01:26:55.661Z,10.53
2018-12-29T01:30:02.846Z,11.60
2018-12-29T01:33:10.038Z,10.45
2018-12-29T01:36:17.702Z,10.30
2018-12-29T01:39:24.728Z,9.15
2018-12-29T01:42:32.168Z,11.83
2018-12-29T01:45:39.361Z,10.25
2018-12-29T01:48:46.511Z,10.35
2018-12-29T01:51:53.740Z,11.65
2018-12-29T01:55:00.737Z,10.28
2018-12-29T01:58:07.844Z,10.23
2018-12-29T02:01:15.040Z,11.53
2018-12-29T02:04:22.152Z,10.40
2018-12-29T02:07:29.301Z,11.55
2018-12-29T02:10:36.393Z,10.18
2018-12-29T02:13:43.560Z,11.22
2018-12-29T02:16:50.646Z,9.88
2018-12-29T02:19:57.984Z,11.00
2018-12-29T02:23:05.106Z,10.43
2018-12-29T02:26:12.138Z,9.85
2018-12-29T02:29:19.290Z,9.13
2018-12-29T02:32:27.720Z,10.45
2018-12-29T02:35:35.131Z,10.25
2018-12-29T02:38:42.311Z,11.33
2018-12-29T02:41:49.409Z,9.65
2018-12-29T02:44:58.262Z,10.85
2018-12-29T02:48:05.355Z,10.82
2018-12-29T02:51:12.636Z,10.45
2018-12-29T02:54:19.871Z,10.72
2018-12-29T02:57:27.055Z,10.15
2018-12-29T03:00:34.278Z,11.97
2018-12-29T03:03:41.364Z,10.23
2018-12-29T03:06:48.535Z,11.08
2018-12-29T03:09:55.586Z,10.40
2018-12-29T03:13:04.948Z,9.73
2018-12-29T03:16:12.023Z,11.03
2018-12-29T03:19:19.163Z,11.25
2018-12-29T03:22:26.353Z,10.80
2018-12-29T03:25:35.743Z,10.78
2018-12-29T03:28:42.894Z,11.00
2018-12-29T03:31:49.996Z,10.53
2018-12-29T03:34:57.215Z,10.30
2018-12-29T03:38:04.320Z,9.80
2018-12-29T03:41:11.401Z,11.18
2018-12-29T03:44:18.532Z,10.72
2018-12-29T03:47:25.606Z,9.50
2018-12-29T03:50:32.748Z,9.87
2018-12-29T03:53:41.661Z,10.45
2018-12-29T03:56:48.759Z,9.27
2018-12-29T03:59:55.923Z,10.40
2018-12-29T04:03:03.026Z,10.53
2018-12-29T04:06:10.402Z,9.50
2018-12-29T04:09:33.719Z,9.57
2018-12-29T04:12:42.717Z,9.65
2018-12-29T04:15:57.670Z,8.28
2018-12-29T04:18:58.584Z,11.97
2018-12-29T04:22:05.615Z,10.25
2018-12-29T04:25:12.741Z,9.65
2018-12-29T04:28:19.807Z,11.25
2018-12-29T04:31:26.932Z,11.50
2018-12-29T04:34:34.250Z,10.85
2018-12-29T04:37:41.273Z,10.45
2018-12-29T04:40:49.697Z,9.25
2018-12-29T04:43:56.885Z,9.55
2018-12-29T04:47:03.987Z,10.50
2018-12-29T04:50:11.103Z,11.40
2018-12-29T04:53:19.228Z,9.35
2018-12-29T04:56:26.370Z,10.98
2018-12-29T04:59:33.756Z,10.20
2018-12-29T05:02:40.829Z,11.05
2018-12-29T05:05:47.910Z,10.90
2018-12-29T05:08:55.262Z,10.53
2018-12-29T05:12:02.419Z,10.20
2018-12-29T05:15:09.657Z,10.65
2018-12-29T05:18:16.763Z,10.78
2018-12-29T05:21:24.160Z,11.17
2018-12-29T05:24:31.269Z,10.28
2018-12-29T05:27:38.407Z,10.50
2018-12-29T05:30:45.515Z,10.38
2018-12-29T05:33:55.561Z,9.70
2018-12-29T05:37:02.591Z,8.88
2018-12-29T05:40:09.708Z,9.13
2018-12-29T05:43:16.757Z,9.13
2018-12-29T05:46:23.855Z,8.88
2018-12-29T05:49:31.022Z,9.50
2018-12-29T05:52:38.143Z,9.13
2018-12-29T05:55:45.216Z,8.93
2018-12-29T05:58:52.282Z,9.23
2018-12-29T06:01:59.396Z,9.95
2018-12-29T06:05:06.512Z,8.68
2018-12-29T06:08:13.698Z,8.75
2018-12-29T06:11:20.827Z,8.35
2018-12-29T06:14:28.005Z,9.45
2018-12-29T06:17:35.182Z,7.50
2018-12-29T06:20:42.278Z,8.90
2018-12-29T06:23:51.253Z,8.33
2018-12-29T06:26:58.459Z,8.63
2018-12-29T06:30:05.733Z,8.20
2018-12-29T06:33:12.830Z,8.30
2018-12-29T06:36:20.014Z,8.75
2018-12-29T06:39:27.067Z,9.53
2018-12-29T06:42:34.383Z,9.95
2018-12-29T06:45:41.993Z,8.70
2018-12-29T06:48:49.069Z,8.53
2018-12-29T06:51:56.225Z,9.63
2018-12-29T06:55:03.342Z,9.53
2018-12-29T06:58:10.716Z,9.50
2018-12-29T07:01:17.897Z,8.60
2018-12-29T07:04:24.995Z,8.15
2018-12-29T07:07:32.247Z,9.25
2018-12-29T07:10:39.307Z,8.50
2018-12-29T07:13:46.365Z,7.87
2018-12-29T07:16:53.441Z,8.30
2018-12-29T07:20:00.770Z,8.08
2018-12-29T07:23:07.903Z,8.58
2018-12-29T07:26:17.305Z,9.43
2018-12-29T07:29:24.475Z,8.75
2018-12-29T07:32:31.573Z,8.75
2018-12-29T07:35:38.660Z,7.72
2018-12-29T07:38:46.074Z,9.25
2018-12-29T07:41:53.114Z,8.50
2018-12-29T07:45:00.211Z,8.48
2018-12-29T07:48:07.336Z,8.48
2018-12-29T07:51:14.427Z,7.37
2018-12-29T07:54:21.530Z,9.23
2018-12-29T07:57:28.691Z,8.13
2018-12-29T08:00:35.849Z,8.78
2018-12-29T08:03:42.978Z,7.78
2018-12-29T08:06:50.025Z,8.35
2018-12-29T08:09:57.129Z,8.38
2018-12-29T08:13:04.204Z,7.97
2018-12-29T08:16:11.423Z,9.00
2018-12-29T08:19:18.467Z,8.30
2018-12-29T08:22:25.642Z,7.45
2018-12-29T08:25:33.007Z,7.12
2018-12-29T08:28:40.082Z,7.93
2018-12-29T08:31:47.180Z,8.28
2018-12-29T08:34:55.914Z,8.03
2018-12-29T08:38:03.039Z,7.95
2018-12-29T08:41:10.153Z,8.53
2018-12-29T08:44:17.271Z,7.50
2018-12-29T08:47:26.237Z,8.68
2018-12-29T08:50:33.298Z,9.25
2018-12-29T08:53:40.308Z,9.05
2018-12-29T08:56:47.543Z,8.18
2018-12-29T08:59:54.808Z,8.08
2018-12-29T09:03:01.906Z,8.90
2018-12-29T09:06:09.159Z,9.33
2018-12-29T09:09:16.219Z,8.53
2018-12-29T09:12:23.378Z,10.35
2018-12-29T09:15:31.280Z,8.23
2018-12-29T09:18:38.370Z,8.33
2018-12-29T09:21:45.483Z,9.43
2018-12-29T09:24:52.650Z,9.00
2018-12-29T09:27:59.811Z,7.83
2018-12-29T09:31:06.907Z,7.57
2018-12-29T09:34:14.094Z,7.93
2018-12-29T09:37:21.225Z,7.17
2018-12-29T09:40:28.372Z,7.57
2018-12-29T09:43:35.461Z,7.50
2018-12-29T09:46:42.570Z,7.30
2018-12-29T09:49:49.638Z,7.83
2018-12-29T09:52:56.824Z,6.20
2018-12-29T09:56:03.950Z,6.87
2018-12-29T09:59:11.193Z,6.20
2018-12-29T10:02:18.322Z,6.65
2018-12-29T10:05:25.496Z,6.70
2018-12-29T10:08:32.583Z,6.40
2018-12-29T10:11:41.134Z,7.63
2018-12-29T10:14:48.250Z,7.67
2018-12-29T10:17:55.341Z,7.77
2018-12-29T10:21:02.463Z,6.40
2018-12-29T10:24:09.578Z,6.83
2018-12-29T10:27:17.595Z,6.17
2018-12-29T10:30:24.662Z,6.23
2018-12-29T10:33:31.784Z,6.57
2018-12-29T10:36:38.897Z,7.00
2018-12-29T10:39:48.419Z,6.60
2018-12-29T10:42:55.722Z,6.93
2018-12-29T10:46:02.792Z,7.10
2018-12-29T10:49:10.018Z,7.67
2018-12-29T10:52:17.467Z,6.77
2018-12-29T10:55:24.612Z,6.83
2018-12-29T10:58:31.755Z,7.13
2018-12-29T11:01:38.886Z,7.70
2018-12-29T11:04:45.973Z,5.93
2018-12-29T11:07:54.034Z,6.83
2018-12-29T11:11:01.239Z,8.23
2018-12-29T11:14:08.348Z,6.50
2018-12-29T11:17:15.525Z,7.60
2018-12-29T11:20:22.946Z,6.53
2018-12-29T11:23:30.130Z,7.17
2018-12-29T11:26:37.198Z,7.03
2018-12-29T11:29:44.359Z,7.00
2018-12-29T11:32:52.532Z,7.93
2018-12-29T11:35:59.610Z,6.67
2018-12-29T11:39:07.754Z,7.27
2018-12-29T11:42:14.887Z,7.87
2018-12-29T11:45:22.260Z,6.23
2018-12-29T11:48:29.383Z,7.00
2018-12-29T11:51:36.471Z,6.33
2018-12-29T11:54:43.701Z,7.90
2018-12-29T11:57:50.802Z,7.23
2018-12-29T12:00:59.993Z,7.03
2018-12-29T12:04:07.177Z,6.93
2018-12-29T12:07:14.268Z,8.10
2018-12-29T12:10:21.356Z,7.23
2018-12-29T12:13:29.498Z,7.33
2018-12-29T12:16:36.974Z,8.80
2018-12-29T12:19:44.515Z,6.43
2018-12-29T12:22:54.608Z,7.43
2018-12-29T12:26:02.292Z,6.77
2018-12-29T12:29:09.336Z,6.27
2018-12-29T12:32:16.642Z,8.20
2018-12-29T12:35:24.614Z,7.00
2018-12-29T12:38:32.747Z,7.43
2018-12-29T12:41:40.318Z,6.80
2018-12-29T12:44:47.725Z,6.43
2018-12-29T12:47:55.077Z,7.27
2018-12-29T12:51:02.285Z,8.07
2018-12-29T12:54:09.282Z,7.60
2018-12-29T12:57:16.818Z,7.73
2018-12-29T13:00:30.528Z,7.70
2018-12-29T13:03:38.966Z,8.23
2018-12-29T13:06:46.229Z,7.97
2018-12-29T13:09:53.495Z,8.57
2018-12-29T13:13:00.977Z,8.17
2018-12-29T13:16:09.855Z,8.70
2018-12-29T13:19:17.644Z,8.80
2018-12-29T13:22:24.777Z,8.17
2018-12-29T13:25:33.957Z,8.73
2018-12-29T13:28:44.502Z,8.80
2018-12-29T13:31:51.574Z,9.37
2018-12-29T13:34:58.957Z,8.20
2018-12-29T13:38:06.162Z,7.90
2018-12-29T13:41:14.656Z,7.23
2018-12-29T13:44:22.169Z,8.43
2018-12-29T13:47:31.092Z,8.67
2018-12-29T13:50:39.441Z,9.40
2018-12-29T13:53:48.922Z,8.67
2018-12-29T13:56:56.149Z,7.80
2018-12-29T14:00:03.854Z,9.00
2018-12-29T14:03:11.480Z,9.67
2018-12-29T14:06:21.053Z,8.97
2018-12-29T14:09:28.298Z,9.30
2018-12-29T14:12:38.536Z,9.57
2018-12-29T14:15:45.660Z,9.43
2018-12-29T14:18:52.774Z,10.00
2018-12-29T14:21:59.979Z,9.67
2018-12-29T14:25:07.480Z,8.90
2018-12-29T14:28:15.126Z,7.20
2018-12-29T14:31:23.542Z,8.60
2018-12-29T14:34:30.498Z,8.70
2018-12-29T14:37:37.580Z,10.23
2018-12-29T14:40:44.773Z,8.77
2018-12-29T14:43:54.922Z,9.87
2018-12-29T14:47:01.817Z,7.83
2018-12-29T14:50:09.143Z,9.83
2018-12-29T14:53:16.774Z,9.50
2018-12-29T14:56:25.802Z,8.90
2018-12-29T14:59:32.884Z,7.73
2018-12-29T15:02:39.865Z,9.57
2018-12-29T15:05:47.378Z,10.00
2018-12-29T15:08:54.500Z,8.33
2018-12-29T15:12:01.760Z,8.77
2018-12-29T15:15:08.654Z,7.57
2018-12-29T15:18:16.361Z,8.03
2018-12-29T15:21:24.048Z,8.33
2018-12-29T15:24:32.316Z,7.70
2018-12-29T15:27:39.412Z,7.13
2018-12-29T15:30:46.953Z,9.23
2018-12-29T15:33:54.151Z,8.10
2018-12-29T15:37:04.792Z,7.73
2018-12-29T15:40:12.565Z,7.03
2018-12-29T15:43:19.732Z,7.33
2018-12-29T15:46:26.938Z,6.90
2018-12-29T15:49:34.384Z,7.30
2018-12-29T15:52:41.781Z,7.03
2018-12-29T15:55:48.918Z,6.27
2018-12-29T15:58:56.331Z,6.20
2018-12-29T16:02:06.285Z,6.27
2018-12-29T16:05:13.405Z,6.30
2018-12-29T16:08:20.727Z,7.33
2018-12-29T16:11:27.915Z,6.10
2018-12-29T16:14:45.821Z,5.80
2018-12-29T16:17:44.110Z,5.43
2018-12-29T16:20:54.288Z,5.47
2018-12-29T16:24:00.383Z,5.97
2018-12-29T16:27:07.507Z,4.67
2018-12-29T16:30:15.410Z,6.40
2018-12-29T16:33:22.983Z,5.23
2018-12-29T16:36:30.460Z,5.13
2018-12-29T16:39:37.529Z,5.13
2018-12-29T16:42:44.930Z,4.10
2018-12-29T16:45:51.971Z,4.73
2018-12-29T16:49:06.516Z,4.20
2018-12-29T16:52:08.023Z,4.60
2018-12-29T16:55:16.880Z,4.83
2018-12-29T16:58:24.004Z,5.07
2018-12-29T17:01:31.427Z,4.93
2018-12-29T17:04:38.624Z,4.90
2018-12-29T17:07:48.058Z,7.13
2018-12-29T17:10:55.350Z,4.17
2018-12-29T17:14:02.550Z,5.83
2018-12-29T17:17:10.170Z,5.07
2018-12-29T17:20:17.712Z,6.17
2018-12-29T17:23:24.875Z,5.67
2018-12-29T17:26:35.419Z,5.00
2018-12-29T17:29:42.572Z,4.87
2018-12-29T17:32:49.768Z,6.07
2018-12-29T17:35:56.915Z,5.77
2018-12-29T17:39:05.168Z,6.33
2018-12-29T17:42:12.383Z,5.97
2018-12-29T17:45:22.403Z,5.60
2018-12-29T17:48:29.978Z,7.13
2018-12-29T17:51:37.160Z,6.10
2018-12-29T17:54:44.316Z,6.17
2018-12-29T17:57:51.429Z,6.40
2018-12-29T18:00:58.490Z,6.07
2018-12-29T18:04:05.581Z,5.80
2018-12-29T18:07:12.720Z,6.13
2018-12-29T18:10:19.825Z,5.47
2018-12-29T18:13:27.161Z,5.50
2018-12-29T18:16:34.264Z,5.07
2018-12-29T18:19:41.482Z,6.13
2018-12-29T18:22:48.951Z,4.20
2018-12-29T18:25:56.025Z,4.63
2018-12-29T18:29:03.106Z,6.63
2018-12-29T18:32:10.186Z,5.77
2018-12-29T18:35:17.495Z,6.43
2018-12-29T18:38:24.684Z,6.55
2018-12-29T18:41:33.872Z,4.80
2018-12-29T18:44:41.066Z,6.00
2018-12-29T18:47:48.434Z,5.37
2018-12-29T18:50:55.629Z,5.70
2018-12-29T18:54:05.070Z,5.40
2018-12-29T18:57:12.431Z,5.10
2018-12-29T19:00:19.603Z,5.47
2018-12-29T19:03:26.711Z,4.40
2018-12-29T19:06:36.099Z,4.70
2018-12-29T19:09:43.237Z,4.07
2018-12-29T19:12:51.677Z,4.87
2018-12-29T19:16:01.931Z,4.17
2018-12-29T19:19:10.478Z,3.90
2018-12-29T19:22:17.747Z,4.50
2018-12-29T19:25:25.124Z,4.33
2018-12-29T19:28:32.649Z,4.53
2018-12-29T19:31:44.691Z,3.90
2018-12-29T19:34:50.724Z,3.57
2018-12-29T19:37:57.861Z,4.40
2018-12-29T19:41:05.174Z,4.30
2018-12-29T19:44:13.395Z,3.83
2018-12-29T19:47:20.686Z,4.30
2018-12-29T19:50:27.787Z,3.93
2018-12-29T19:53:34.860Z,3.13
2018-12-29T19:56:42.867Z,4.03
2018-12-29T19:59:50.222Z,4.17
2018-12-29T20:02:57.633Z,3.43
2018-12-29T20:06:11.132Z,4.13
2018-12-29T20:09:16.023Z,4.23
2018-12-29T20:12:23.082Z,3.60
2018-12-29T20:15:30.166Z,3.57
2018-12-29T20:18:37.211Z,3.43
2018-12-29T20:21:44.280Z,4.63
2018-12-29T20:24:51.243Z,3.73
2018-12-29T20:27:58.381Z,4.33
2018-12-29T20:31:05.537Z,3.53
2018-12-29T20:34:12.623Z,4.17
2018-12-29T20:37:19.762Z,4.80
2018-12-29T20:40:26.821Z,4.27
2018-12-29T20:43:34.135Z,4.07
2018-12-29T20:46:41.319Z,4.13
2018-12-29T20:49:48.488Z,4.40
2018-12-29T20:52:55.698Z,5.07
2018-12-29T20:56:03.284Z,4.63
2018-12-29T20:59:10.586Z,5.60
2018-12-29T21:02:17.656Z,4.33
2018-12-29T21:05:26.656Z,5.23
2018-12-29T21:08:33.736Z,4.83
2018-12-29T21:11:40.859Z,5.50
2018-12-29T21:14:48.166Z,5.80
2018-12-29T21:17:56.367Z,6.73
2018-12-29T21:21:03.433Z,4.97
2018-12-29T21:24:12.372Z,4.60
2018-12-29T21:27:19.163Z,5.73
2018-12-29T21:30:26.383Z,6.17
2018-12-29T21:33:33.582Z,4.57
2018-12-29T21:36:40.653Z,5.17
2018-12-29T21:39:47.716Z,5.10
2018-12-29T21:42:54.945Z,5.77
2018-12-29T21:46:03.163Z,5.80
2018-12-29T21:49:10.309Z,4.67
2018-12-29T21:52:17.311Z,5.80
2018-12-29T21:55:24.482Z,6.00
2018-12-29T21:58:31.885Z,4.90
2018-12-29T22:01:39.227Z,4.70
2018-12-29T22:04:47.326Z,4.57
2018-12-29T22:07:54.385Z,4.77
2018-12-29T22:11:01.628Z,4.33
2018-12-29T22:14:08.704Z,4.97
2018-12-29T22:17:15.774Z,4.90
2018-12-29T22:20:22.883Z,4.20
2018-12-29T22:23:29.975Z,4.13
2018-12-29T22:26:38.661Z,4.57
2018-12-29T22:29:45.705Z,5.17
2018-12-29T22:32:52.883Z,5.10
2018-12-29T22:36:00.017Z,5.37
2018-12-29T22:39:08.733Z,6.03
2018-12-29T22:42:15.961Z,5.90
2018-12-29T22:45:22.994Z,5.87
2018-12-29T22:48:30.194Z,6.93
2018-12-29T22:51:37.354Z,5.13
2018-12-29T22:54:44.495Z,5.77
2018-12-29T22:57:51.630Z,4.90
2018-12-29T23:01:00.591Z,5.90
2018-12-29T23:04:07.459Z,4.80
2018-12-29T23:07:15.964Z,4.93
2018-12-29T23:10:23.048Z,5.43
2018-12-29T23:13:30.571Z,6.47
2018-12-29T23:16:37.854Z,6.37
2018-12-29T23:19:45.910Z,6.37
2018-12-29T23:22:53.199Z,5.23
2018-12-29T23:26:00.347Z,6.33
2018-12-29T23:29:07.452Z,6.90
2018-12-29T23:32:14.627Z,6.10
2018-12-29T23:35:21.721Z,6.83
2018-12-29T23:38:28.989Z,5.47
2018-12-29T23:41:36.225Z,5.37
2018-12-29T23:44:43.323Z,5.17
2018-12-29T23:47:52.302Z,5.37
2018-12-29T23:51:05.340Z,5.30
2018-12-29T23:54:08.423Z,4.60
2018-12-29T23:57:15.834Z,4.57
